Tiempo atmosférico en la estación meteorológica de Cañamero, Cáceres (590 m.)



Fecha
DESCASC
Temp. máxima en grados centígrados (hora)
DESCASC
Temp. mínima en grados centígrados (hora)
DESCASC
Temp. media en grados centígrados
DESCASC
Racha de viento máxima en m/sg (hora)
DESCASC
Velocidad máxima media en intervalos de 10 minutos(hora)
DESCASC
Precipitaciones diarias en mm
DESCASC
Precipitaciones de 00:00 a 06:00 en mm
DESCASC
Precipitaciones de 06:00 a 12:00 en mm
DESCASC
Precipitaciones de 12:00 a 18:00 en mm
DESCASC
Precipitaciones de 18:00 a 24:00 en mm
DESCASC
02-04-2020 15.2 (19:10) 5.6 (07:50) 10.4 8.06 (17:00) 4.72 (18:20) 1 0.6 0.4 0 0
01-04-2020 13.9 (18:10) 4.5 (08:10) 9.2 12.78 (19:00) 6.67 (19:10) 2.2 0 0 0 2.2
31-03-2020 13.1 (15:10) 4.1 (00:00) 8.6 10.83 (05:40) 5 (01:00) 27.8 1.8 6.4 18 1.6
30-03-2020 12.9 (13:10) 4.8 (00:00) 8.8 9.72 (22:20) 4.44 (17:50) 5.4 0 0 0.8 4.6
29-03-2020 17.2 (15:50) 6 (00:00) 11.6 6.11 (17:40) 3.89 (18:40) 0 0 0 0 0
28-03-2020 16.6 (17:40) 4.2 (00:00) 10.4 10.56 (09:10) 5.28 (09:40) 0 0 0 0 0
27-03-2020 12.2 (16:30) 5.4 (00:00) 8.8 9.44 (14:40) 5 (15:30) 0 0 0 0 0
26-03-2020 17.3 (15:30) 7.2 (00:00) 12.2 8.33 (16:40) 5.28 (17:10) 0 0 0 0 0
25-03-2020 16.7 (16:50) 6.5 (00:00) 11.6 8.89 (16:00) 5.83 (17:00) 10.4 0 0 0 10.4
24-03-2020 15.6 (16:00) 8.8 (00:00) 12.2 11.94 (15:40) 5.56 (15:40) 0 0 0 0 0
23-03-2020 14.7 (15:40) 6.6 (00:00) 10.6 9.17 (14:10) 4.72 (17:20) 0.8 0 0 0.8 0
22-03-2020 13.8 (14:30) 5.5 (07:10) 9.7 5.83 (11:40) 2.78 (11:40) 7.2 0 0.2 1.2 5.8
21-03-2020 12.4 (15:40) 6.3 (00:00) 9.3 10.28 (05:10) 6.11 (05:10) 22.2 12.8 5.8 0.2 3.4
20-03-2020 16 (15:30) 9.3 (00:00) 12.7 7.5 (00:50) 3.33 (00:50) 0.4 0 0.4 0 0
19-03-2020 18.6 (16:00) 8.4 (00:00) 13.5 9.17 (01:50) 5 (01:50) 0 0 0 0 0
18-03-2020 19.1 (15:10) 10.4 (00:00) 14.8 13.33 (11:10) 6.39 (10:40) 0 0 0 0 0
17-03-2020 16.8 (18:30) 4.5 (00:00) 10.6 10.83 (22:50) 5.28 (10:00) 0 0 0 0 0
16-03-2020 9.4 (12:30) 3.5 (00:00) 6.4 12.78 (08:20) 6.94 (08:00) 3.2 0 0 0.2 3
15-03-2020 19.9 (16:20) 9 (00:00) 14.4 11.67 (17:00) 7.22 (16:50) 0 0 0 0 0
14-03-2020 20 (17:40) 9.8 (00:00) 14.9 5.28 (16:10) 3.33 (15:30) 0 0 0 0 0
13-03-2020 18.7 (16:40) 9.1 (07:40) 13.9 6.67 (16:10) 4.17 (15:50) 0 0 0 0 0
12-03-2020 24.9 (14:10) 14.8 (00:00) 19.8 6.11 (14:50) 3.06 (06:00) 0 0 0 0 0
11-03-2020 24.6 (16:10) 13 (00:00) 18.8 5 (07:30) 3.06 (07:00) 0 0 0 0 0
10-03-2020 21.4 (17:30) 8.5 (00:00) 14.9 5 (14:10) 3.06 (14:00) 0 0 0 0 0
09-03-2020 17.6 (17:50) 6 (00:00) 11.8 10 (04:20) 4.44 (04:20) 0 0 0 0 0
08-03-2020 15.6 (17:20) 4.1 (00:00) 9.9 7.78 (21:50) 5.28 (21:50) 0 0 0 0 0
07-03-2020 14.9 (16:50) 3.8 (00:00) 9.3 6.39 (01:10) 3.89 (01:10) 0 0 0 0 0
06-03-2020 13 (15:50) 4.7 (00:00) 8.8 13.33 (16:20) 7.78 (16:20) 0.2 0 0.2 0 0
05-03-2020 14.3 (16:20) 8.1 (00:00) 11.2 12.22 (09:50) 8.06 (11:30) 2.4 0 2.2 0.2 0

Gráficas

Temp. máximas Temp. mínimas Temp. medias Precipitaciones Rachas de viento máximas Velocidades máximas media en intervalos de 10 minutos

Datos horarios

Fecha y hora oficial Temperatura (ºC) Velocidad del viento (km/h) Dirección del viento Racha (km/h) Dirección de racha Precipitación (mm) Presión (hPa) Tendencia (hPa) Humedad (%)
2020-04-03 23:00:00 10.7 4 Nordeste 5 Nordeste 0 -- -- 78
2020-04-03 22:00:00 11.9 0 Calma 3 Norte 0 -- -- 75
2020-04-03 21:00:00 15 0 Calma 6 Sur 0 -- -- 63
2020-04-03 20:00:00 18.2 4 Sur 9 Sur 0 -- -- 49
2020-04-03 19:00:00 18.2 4 Sur 12 Sur 0 -- -- 46
2020-04-03 18:00:00 17 4 Sudeste 16 Sudoeste 0 -- -- 47
2020-04-03 17:00:00 17.9 5 Sur 15 Sudeste 0 -- -- 45
2020-04-03 16:00:00 18.5 6 Sudeste 17 Sudoeste 0 -- -- 47
2020-04-03 15:00:00 17.2 6 Sudoeste 17 Sudoeste 0 -- -- 49
2020-04-03 14:00:00 16.7 6 Sudeste 17 Sudeste 0 -- -- 49
2020-04-03 13:00:00 16 6 Sudeste 17 Sudeste 0 -- -- 52
2020-04-03 12:00:00 15 8 Este 18 Este 0 -- -- 57
2020-04-03 11:00:00 13.7 6 Este 18 Sudeste 0 -- -- 63
2020-04-03 10:00:00 11.6 5 Este 15 Sudeste 0 -- -- 70
2020-04-03 09:00:00 8.6 5 Este 15 Sudeste 0 -- -- 79
2020-04-03 08:00:00 8.2 4 Este 15 Este 0 -- -- 79
2020-04-03 07:00:00 8.4 5 Este 15 Este 0 -- -- 77
2020-04-03 06:00:00 8.7 6 Este 12 Este 0 -- -- 76
2020-04-03 05:00:00 8.3 5 Nordeste 9 Este 0 -- -- 78
2020-04-03 04:00:00 8.2 3 Este 8 Nordeste 0 -- -- 80
2020-04-03 03:00:00 9.3 5 Este 12 Este 0 -- -- 77
2020-04-03 02:00:00 9.6 3 Este 10 Este 0 -- -- 79
2020-04-03 01:00:00 10.2 0 Calma 9 Nordeste 0 -- -- 77
2020-04-03 00:00:00 11.3 0 Calma 7 Este 0 -- -- 74
2020-04-02 23:00:00 11.8 3 Este 7 Nordeste 0 -- -- 72
2020-04-02 22:00:00 12.6 4 Nordeste 15 Norte 0 -- -- 67
2020-04-02 21:00:00 13.4 5 Norte 9 Sudoeste 0 -- -- 65
2020-04-02 20:00:00 14.9 6 Sudoeste 22 Sudoeste 0 -- -- 62
2020-04-02 19:00:00 15.1 14 Oeste 27 Oeste 0 -- -- 62
2020-04-02 18:00:00 15.1 15 Oeste 23 Oeste 0 -- -- 64
2020-04-02 17:00:00 14.6 14 Oeste 29 Oeste 0 -- -- 68
2020-04-02 16:00:00 13.9 13 Oeste 27 Sudoeste 0 -- -- 67
2020-04-02 15:00:00 12.6 10 Oeste 22 Oeste 0 -- -- 74
2020-04-02 14:00:00 12.8 9 Sudoeste 18 Sudoeste 0 -- -- 71
2020-04-02 13:00:00 11.4 5 Noroeste 19 Oeste 0 -- -- 73
2020-04-02 12:00:00 10.8 5 Este 11 Sur 0 -- -- 73
2020-04-02 11:00:00 9.2 4 Este 15 Nordeste 0 -- -- 82
2020-04-02 10:00:00 7.4 6 Nordeste 18 Este 0 -- -- 96
2020-04-02 09:00:00 6.1 7 Este 15 Este 0.2 -- -- 98
2020-04-02 08:00:00 5.7 2 Sudeste 8 Norte 0 -- -- 97
2020-04-02 07:00:00 5.8 2 Oeste 15 Sudoeste 0.2 -- -- 96
2020-04-02 06:00:00 6.4 8 Oeste 14 Oeste 0.6 -- -- 94
2020-04-02 05:00:00 6.5 3 Sudeste 12 Este 0 -- -- 93
2020-04-02 04:00:00 6.3 4 Este 12 Sudeste 0 -- -- 93
2020-04-02 03:00:00 6.3 4 Este 10 Sudeste 0 -- -- 93
2020-04-02 02:00:00 6.3 4 Este 10 Sudeste 0 -- -- 95
2020-04-02 01:00:00 5.8 3 Este 10 Este 0 -- -- 94
2020-04-02 00:00:00 5.8 4 Sudeste 9 Este 0 -- -- 94
2020-04-01 23:00:00 5.5 3 Este 8 Este 0 -- -- 92
2020-04-01 22:00:00 6 3 Este 6 Este 0 -- -- 91
2020-04-01 21:00:00 6.9 4 Nordeste 17 Norte 0 -- -- 87
2020-04-01 20:00:00 6.9 13 Norte 39 Sudoeste 2.2 -- -- 95
2020-04-01 19:00:00 10.2 24 Sudoeste 46 Sudoeste 0 -- -- 78
2020-04-01 18:00:00 13.4 4 Sur 15 Noroeste 0 -- -- 52
2020-04-01 17:00:00 12.8 9 Sudoeste 21 Sudoeste 0 -- -- 56
2020-04-01 16:00:00 11.9 13 Oeste 23 Oeste 0 -- -- 60
2020-04-01 15:00:00 11.3 10 Sudoeste 22 Sudoeste 0 -- -- 62
2020-04-01 14:00:00 10.7 9 Oeste 20 Sudoeste 0 -- -- 65
2020-04-01 13:00:00 9.6 9 Oeste 24 Sudoeste 0 -- -- 72
2020-04-01 12:00:00 9.3 8 Sur 18 Sudoeste 0 -- -- 79
2020-04-01 11:00:00 8 4 Sudoeste 10 Oeste 0 -- -- 82
2020-04-01 10:00:00 6.6 4 Noroeste 10 Oeste 0 -- -- 95
2020-04-01 09:00:00 4.9 0 Calma 4 Este 0 -- -- 98
2020-04-01 08:00:00 4.6 2 Este 4 Sudeste 0 -- -- 97
2020-04-01 07:00:00 5.2 2 Sudeste 4 Sudeste 0 -- -- 97
2020-04-01 06:00:00 5.9 0 Calma 4 Sudoeste 0 -- -- 97
2020-04-01 05:00:00 6.1 0 Calma 6 Norte 0 -- -- 97
2020-04-01 04:00:00 6 0 Calma 6 Oeste 0 -- -- 96
2020-04-01 03:00:00 6.6 4 Sudoeste 13 Sudoeste 0 -- -- 96
2020-04-01 02:00:00 7.2 9 Sudoeste 18 Sudoeste 0 -- -- 97
2020-04-01 01:00:00 8.1 13 Sudoeste 18 Sudoeste 0 -- -- 97
2020-04-01 00:00:00 8.3 5 Sudoeste 8 Sudoeste 0 -- -- 97
2020-03-31 23:00:00 8.1 2 Sudeste 6 Sur 0 -- -- 97
2020-03-31 22:00:00 8.6 2 Sudeste 7 Sur 0.2 -- -- 96
2020-03-31 21:00:00 8.8 3 Este 7 Sudeste 0 -- -- 95
2020-03-31 20:00:00 9.3 4 Sudeste 16 Este 1.4 -- -- 94
2020-03-31 19:00:00 9.6 5 Este 12 Sudeste 0 -- -- 93
2020-03-31 18:00:00 9.1 3 Sudeste 18 Noroeste 4 -- -- 96
2020-03-31 17:00:00 8.6 0 Calma 21 Nordeste 13.4 -- -- 93
2020-03-31 16:00:00 10.3 16 Norte 27 Norte 0.4 -- -- 91
2020-03-31 15:00:00 12.8 5 Sur 23 Sudoeste 0 -- -- 80
2020-03-31 14:00:00 11.9 11 Sudoeste 20 Oeste 0 -- -- 80
2020-03-31 13:00:00 9.5 5 Este 17 Este 0.2 -- -- 96
2020-03-31 12:00:00 7 7 Este 26 Nordeste 0.2 -- -- 97
2020-03-31 11:00:00 6.2 12 Este 29 Este 1 -- -- 97
2020-03-31 10:00:00 5.6 14 Este 28 Este 1.8 -- -- 97
2020-03-31 09:00:00 4.9 9 Este 31 Este 1 -- -- 97
2020-03-31 08:00:00 4.5 14 Este 27 Nordeste 0.8 -- -- 97
2020-03-31 07:00:00 4.2 12 Este 29 Este 1.6 -- -- 96
2020-03-31 06:00:00 4.1 12 Este 39 Nordeste 1.4 -- -- 96
2020-03-31 05:00:00 4.1 13 Este 28 Este 0.4 -- -- 94
2020-03-31 04:00:00 4.4 12 Este 33 Este 0 -- -- 90
2020-03-31 03:00:00 4.2 14 Este 32 Este 0 -- -- 91
2020-03-31 02:00:00 4.4 15 Este 33 Nordeste 0 -- -- 89
2020-03-31 01:00:00 4.8 18 Este 32 Este 0 -- -- 89
2020-03-31 00:00:00 4.8 10 Este 24 Este 0 -- -- 93
2020-03-30 23:00:00 5 11 Este 35 Nordeste 0 -- -- 93
2020-03-30 22:00:00 5.3 13 Este 31 Este 0.4 -- -- 94
2020-03-30 21:00:00 5.7 13 Este 30 Este 0.6 -- -- 94
2020-03-30 20:00:00 6.4 14 Este 31 Este 1.4 -- -- 93
2020-03-30 19:00:00 7.2 9 Este 24 Nordeste 2.2 -- -- 91
2020-03-30 18:00:00 8.4 13 Este 31 Nordeste 0.2 -- -- 84
2020-03-30 17:00:00 9.7 13 Nordeste 24 Nordeste 0.2 -- -- 83
2020-03-30 16:00:00 11.3 0 Calma 11 Oeste 0 -- -- 85
2020-03-30 15:00:00 11.3 8 Sudoeste 18 Sudoeste 0.4 -- -- 83
2020-03-30 14:00:00 11.4 8 Sudoeste 18 Sudoeste 0 -- -- 80
2020-03-30 13:00:00 12.8 5 Sudoeste 12 Sudoeste 0 -- -- 72
2020-03-30 12:00:00 11.2 4 Noroeste 9 Sudoeste 0 -- -- 82
2020-03-30 11:00:00 11.2 6 Sudoeste 13 Sudoeste 0 -- -- 81
2020-03-30 10:00:00 10.4 3 Sur 6 Sudeste 0 -- -- 82
2020-03-30 09:00:00 8.1 2 Sudeste 6 Noroeste 0 -- -- 83
2020-03-30 08:00:00 9.1 3 Noroeste 9 Noroeste 0 -- -- 76
2020-03-30 07:00:00 8.4 5 Norte 8 Norte 0 -- -- 80
2020-03-30 06:00:00 8.4 4 Noroeste 9 Oeste 0 -- -- 81
2020-03-30 05:00:00 9.3 7 Oeste 12 Oeste 0 -- -- 79
2020-03-30 04:00:00 9.5 8 Oeste 11 Oeste 0 -- -- 78
2020-03-30 03:00:00 9.1 5 Oeste 12 Sudoeste 0 -- -- 78
2020-03-30 02:00:00 9.8 3 Noroeste 8 Norte 0 -- -- 75
2020-03-30 01:00:00 10.7 5 Noroeste 8 Noroeste 0 -- -- 70
2020-03-30 00:00:00 11.2 4 Norte 6 Noroeste 0 -- -- 72
2020-03-29 23:00:00 12.2 4 Norte 9 Noroeste 0 -- -- 62
2020-03-29 22:00:00 12.6 5 Norte 12 Oeste 0 -- -- 60
2020-03-29 21:00:00 13.8 8 Oeste 15 Oeste 0 -- -- 53
2020-03-29 20:00:00 15 8 Oeste 19 Oeste 0 -- -- 52
2020-03-29 19:00:00 16.1 12 Oeste 21 Oeste 0 -- -- 48
2020-03-29 18:00:00 16.7 10 Oeste 22 Oeste 0 -- -- 49
2020-03-29 17:00:00 17.2 13 Sudoeste 21 Sudoeste 0 -- -- 44
2020-03-29 16:00:00 17.1 9 Sudoeste 22 Sudoeste 0 -- -- 44
2020-03-29 15:00:00 16.9 11 Sudoeste 21 Oeste 0 -- -- 47
2020-03-29 14:00:00 16.3 4 Sudoeste 12 Oeste 0 -- -- 45
2020-03-29 13:00:00 15 3 Sur 9 Sudoeste 0 -- -- 47
2020-03-29 12:00:00 13.9 3 Sur 9 Sudoeste 0 -- -- 50
2020-03-29 11:00:00 13.6 3 Sudeste 10 Sudeste 0 -- -- 51
2020-03-29 10:00:00 10.9 3 Este 12 Este 0 -- -- 61
2020-03-29 09:00:00 8.2 8 Este 13 Nordeste 0 -- -- 63
2020-03-29 08:00:00 7.6 8 Este 14 Nordeste 0 -- -- 62
2020-03-29 07:00:00 6.8 4 Nordeste 9 Nordeste 0 -- -- 70
2020-03-29 06:00:00 6.4 4 Nordeste 12 Este 0 -- -- 69
2020-03-29 05:00:00 7.7 7 Nordeste 11 Este 0 -- -- 61
2020-03-29 03:00:00 9.1 4 Este 12 Este 0 -- -- 53
2020-03-29 01:00:00 9.3 6 Este 13 Este 0 -- -- 54
2020-03-29 00:00:00 9.5 2 Este 10 Este 0 -- -- 55
2020-03-28 23:00:00 10.3 5 Este 10 Este 0 -- -- 55
2020-03-28 22:00:00 9.6 4 Nordeste 8 Nordeste 0 -- -- 66
2020-03-28 21:00:00 10 2 Este 5 Nordeste 0 -- -- 72
2020-03-28 20:00:00 12.7 0 Calma 3 Sudeste 0 -- -- 60
2020-03-28 19:00:00 15.1 2 Sudeste 8 Este 0 -- -- 52
2020-03-28 18:00:00 16.2 5 Este 14 Sudeste 0 -- -- 48
2020-03-28 17:00:00 16.5 5 Sudeste 17 Sudeste 0 -- -- 47
2020-03-28 16:00:00 16.1 4 Este 23 Norte 0 -- -- 52
2020-03-28 15:00:00 15.2 10 Este 27 Nordeste 0 -- -- 52
2020-03-28 14:00:00 14.6 9 Este 23 Este 0 -- -- 56
2020-03-28 13:00:00 13.7 9 Sudeste 26 Este 0 -- -- 54
2020-03-28 12:00:00 11.9 10 Este 32 Sudeste 0 -- -- 62
2020-03-28 11:00:00 10.3 11 Este 31 Nordeste 0 -- -- 69
2020-03-28 10:00:00 8.5 15 Este 38 Nordeste 0 -- -- 71
2020-03-28 09:00:00 6.8 14 Este 35 Este 0 -- -- 77
2020-03-28 08:00:00 4.6 12 Este 29 Nordeste 0 -- -- 85
2020-03-28 07:00:00 4.3 10 Este 27 Este 0 -- -- 84
2020-03-28 06:00:00 4.5 9 Este 25 Este 0 -- -- 83
2020-03-28 05:00:00 4.4 10 Este 28 Este 0 -- -- 84
2020-03-28 04:00:00 4.7 9 Este 24 Este 0 -- -- 83
2020-03-28 03:00:00 4.9 9 Este 24 Este 0 -- -- 82
2020-03-28 02:00:00 5 10 Este 27 Este 0 -- -- 82
2020-03-28 01:00:00 5.2 8 Este 20 Nordeste 0 -- -- 82
2020-03-28 00:00:00 5.5 5 Este 15 Nordeste 0 -- -- 80
2020-03-27 23:00:00 5.8 9 Este 18 Este 0 -- -- 79
2020-03-27 22:00:00 6 4 Este 12 Sudeste 0 -- -- 77
2020-03-27 21:00:00 6.9 6 Este 15 Sudeste 0 -- -- 73
2020-03-27 20:00:00 8 6 Este 15 Este 0 -- -- 69
2020-03-27 19:00:00 9.8 7 Este 26 Sudeste 0 -- -- 62
2020-03-27 18:00:00 10.7 9 Este 29 Este 0 -- -- 60
2020-03-27 17:00:00 11.9 12 Este 31 Este 0 -- -- 58
2020-03-27 16:00:00 11.8 16 Nordeste 32 Este 0 -- -- 56
2020-03-27 15:00:00 11.6 12 Este 34 Nordeste 0 -- -- 59
2020-03-27 14:00:00 11.7 14 Este 32 Este 0 -- -- 60
2020-03-27 13:00:00 11.6 12 Este 32 Nordeste 0 -- -- 60
2020-03-27 12:00:00 11.3 12 Este 29 Nordeste 0 -- -- 63
2020-03-27 11:00:00 10.3 10 Este 27 Sudeste 0 -- -- 64
2020-03-27 10:00:00 8.6 9 Este 20 Este 0 -- -- 73
2020-03-27 09:00:00 7.6 4 Sudeste 9 Sudeste 0 -- -- 97
2020-03-27 08:00:00 6.9 0 Calma 6 Sudeste 0 -- -- 99
2020-03-27 07:00:00 6.4 2 Sudeste 17 Sudeste 0 -- -- 99
2020-03-27 06:00:00 5.7 6 Este 17 Sudeste 0 -- -- 98
2020-03-27 05:00:00 5.6 4 Este 8 Nordeste 0 -- -- 98
2020-03-27 04:00:00 6.5 0 Calma 15 Sudoeste 0 -- -- 97
2020-03-27 03:00:00 6.9 9 Oeste 15 Sudoeste 0 -- -- 96
2020-03-27 02:00:00 7.1 10 Sudoeste 20 Sudoeste 0 -- -- 93
2020-03-27 01:00:00 8.3 6 Sudoeste 13 Oeste 0 -- -- 84
2020-03-27 00:00:00 10.1 5 Noroeste 15 Noroeste 0 -- -- 74
2020-03-26 23:00:00 10.8 7 Noroeste 14 Noroeste 0 -- -- 66
2020-03-26 22:00:00 11.6 6 Oeste 12 Oeste 0 -- -- 58
2020-03-26 21:00:00 13.1 5 Oeste 17 Noroeste 0 -- -- 49
2020-03-26 20:00:00 14.3 7 Oeste 18 Oeste 0 -- -- 42
2020-03-26 19:00:00 16.3 10 Noroeste 28 Oeste 0 -- -- 38
2020-03-26 18:00:00 16.9 15 Noroeste 30 Noroeste 0 -- -- 38
2020-03-26 17:00:00 17.1 17 Noroeste 30 Oeste 0 -- -- 39
2020-03-26 16:00:00 17.1 17 Oeste 27 Noroeste 0 -- -- 45
2020-03-26 15:00:00 17.1 15 Oeste 30 Noroeste 0 -- -- 46
2020-03-26 14:00:00 16.5 14 Noroeste 27 Noroeste 0 -- -- 47
2020-03-26 13:00:00 15.1 6 Oeste 19 Sudoeste 0 -- -- 64
2020-03-26 12:00:00 13.5 12 Sudoeste 20 Sudoeste 0 -- -- 76
2020-03-26 11:00:00 12.2 9 Sudoeste 17 Noroeste 0 -- -- 71
2020-03-26 10:00:00 11.5 10 Noroeste 18 Noroeste 0 -- -- 72
2020-03-26 09:00:00 10 9 Noroeste 15 Sudoeste 0 -- -- 78
2020-03-26 08:00:00 7.3 5 Sudoeste 9 Oeste 0 -- -- 94
2020-03-26 07:00:00 8.3 6 Oeste 14 Oeste 0 -- -- 91
2020-03-26 06:00:00 7.9 7 Oeste 15 Oeste 0 -- -- 96
2020-03-26 05:00:00 8.6 8 Noroeste 15 Oeste 0 -- -- 95
2020-03-26 04:00:00 8.8 5 Noroeste 13 Oeste 0 -- -- 94
2020-03-26 03:00:00 9.2 11 Oeste 14 Oeste 0 -- -- 95
2020-03-26 02:00:00 9.3 9 Oeste 13 Oeste 0 -- -- 95
2020-03-26 01:00:00 9.6 0 Calma 9 Sudoeste 0 -- -- 93
2020-03-26 00:00:00 9.5 4 Oeste 21 Oeste 3.4 -- -- 92
2020-03-25 23:00:00 9 0 Calma 20 Este 1 -- -- 93
2020-03-25 22:00:00 9.3 9 Nordeste 32 Nordeste 5 -- -- 89
2020-03-25 21:00:00 12 12 Nordeste 26 Este 1 -- -- 73
2020-03-25 20:00:00 12.9 8 Oeste 23 Noroeste 0 -- -- 72
2020-03-25 19:00:00 15.3 8 Oeste 22 Oeste 0 -- -- 60
2020-03-25 18:00:00 16 11 Noroeste 26 Oeste 0 -- -- 57
2020-03-25 17:00:00 16.5 21 Oeste 31 Oeste 0 -- -- 57
2020-03-25 16:00:00 16.1 18 Oeste 32 Oeste 0 -- -- 59
2020-03-25 15:00:00 16 16 Oeste 31 Sudoeste 0 -- -- 56
2020-03-25 14:00:00 15.3 13 Oeste 24 Oeste 0 -- -- 60
2020-03-25 13:00:00 14.2 10 Oeste 20 Oeste 0 -- -- 58
2020-03-25 12:00:00 13.6 11 Oeste 15 Oeste 0 -- -- 62
2020-03-25 11:00:00 13.2 4 Sur 14 Este 0 -- -- 57
2020-03-25 10:00:00 11.5 8 Este 21 Nordeste 0 -- -- 62
2020-03-25 09:00:00 9.2 8 Este 21 Nordeste 0 -- -- 73
2020-03-25 08:00:00 7.7 6 Este 16 Nordeste 0 -- -- 77
2020-03-25 07:00:00 6.5 3 Este 13 Nordeste 0 -- -- 82
2020-03-25 06:00:00 6.8 8 Este 15 Nordeste 0 -- -- 80
2020-03-25 05:00:00 6.8 5 Este 14 Este 0 -- -- 81
2020-03-25 04:00:00 7.2 8 Nordeste 15 Nordeste 0 -- -- 81
2020-03-25 03:00:00 8.2 8 Este 19 Este 0 -- -- 79
2020-03-25 02:00:00 8.4 5 Este 21 Este 0 -- -- 79
2020-03-25 01:00:00 8.5 6 Este 19 Este 0 -- -- 80
2020-03-25 00:00:00 8.8 6 Este 20 Este 0 -- -- 80
2020-03-24 23:00:00 9.1 5 Este 21 Sudeste 0 -- -- 80
2020-03-24 22:00:00 9.7 7 Este 19 Este 0 -- -- 78
2020-03-24 21:00:00 10.3 7 Este 23 Este 0 -- -- 75
2020-03-24 20:00:00 11.3 8 Este 31 Sudeste 0 -- -- 71
2020-03-24 19:00:00 12.8 12 Este 32 Este 0 -- -- 64
2020-03-24 18:00:00 13.4 13 Este 37 Nordeste 0 -- -- 64
2020-03-24 17:00:00 14 18 Este 42 Nordeste 0 -- -- 62
2020-03-24 16:00:00 15.6 14 Este 43 Nordeste 0 -- -- 60
2020-03-24 15:00:00 14.8 17 Este 39 Nordeste 0 -- -- 62
2020-03-24 14:00:00 13.9 18 Este 42 Nordeste 0 -- -- 67
2020-03-24 13:00:00 13.8 14 Este 42 Este 0 -- -- 65
2020-03-24 12:00:00 12.8 14 Este 40 Este 0 -- -- 68
2020-03-24 11:00:00 12.7 18 Este 39 Nordeste 0 -- -- 69
2020-03-24 10:00:00 11.6 18 Nordeste 32 Este 0 -- -- 77
2020-03-24 09:00:00 10.6 15 Este 30 Nordeste 0 -- -- 79
2020-03-24 08:00:00 10.4 14 Nordeste 27 Nordeste 0 -- -- 80
2020-03-24 07:00:00 10.7 14 Este 31 Nordeste 0 -- -- 77
2020-03-24 06:00:00 10.7 16 Este 36 Nordeste 0 -- -- 76
2020-03-24 05:00:00 10.3 14 Este 33 Este 0 -- -- 78
2020-03-24 04:00:00 10.2 16 Este 32 Este 0 -- -- 79
2020-03-24 03:00:00 9.9 15 Este 30 Este 0 -- -- 81
2020-03-24 02:00:00 10.2 11 Este 24 Este 0 -- -- 84
2020-03-24 01:00:00 10.1 6 Este 23 Sur 0 -- -- 83
2020-03-24 00:00:00 10.2 10 Este 24 Sudeste 0 -- -- 79
2020-03-23 23:00:00 10.1 10 Este 26 Este 0 -- -- 77
2020-03-23 22:00:00 10.3 12 Este 23 Este 0 -- -- 74
2020-03-23 21:00:00 10.7 14 Este 33 Nordeste 0 -- -- 75
2020-03-23 20:00:00 11.9 17 Nordeste 32 Este 0 -- -- 72
2020-03-23 19:00:00 13.5 13 Nordeste 30 Nordeste 0 -- -- 66
2020-03-23 18:00:00 14.1 15 Nordeste 30 Nordeste 0 -- -- 65
2020-03-23 17:00:00 13.4 13 Nordeste 27 Este 0.8 -- -- 68
2020-03-23 16:00:00 14.6 12 Nordeste 27 Este 0 -- -- 59
2020-03-23 15:00:00 13.6 12 Nordeste 33 Nordeste 0 -- -- 66
2020-03-23 14:00:00 12.4 12 Nordeste 27 Sudeste 0 -- -- 73
2020-03-23 13:00:00 13.5 9 Este 23 Este 0 -- -- 69
2020-03-23 12:00:00 12.6 10 Este 24 Nordeste 0 -- -- 70
2020-03-23 11:00:00 11.6 11 Este 29 Nordeste 0 -- -- 75
2020-03-23 10:00:00 10.3 8 Este 19 Nordeste 0 -- -- 81
2020-03-23 09:00:00 8.5 10 Este 23 Este 0 -- -- 89
2020-03-23 08:00:00 6.8 8 Este 19 Este 0 -- -- 95
2020-03-23 07:00:00 6.8 5 Este 14 Este 0 -- -- 94
2020-03-23 06:00:00 7.7 4 Este 13 Sudeste 0 -- -- 93
2020-03-23 05:00:00 8.1 3 Este 11 Este 0 -- -- 93
2020-03-23 04:00:00 8 3 Este 10 Nordeste 0 -- -- 93
2020-03-23 03:00:00 8.3 4 Este 13 Nordeste 0 -- -- 92
2020-03-23 02:00:00 8.4 6 Nordeste 13 Nordeste 0 -- -- 89
2020-03-23 01:00:00 8.7 5 Nordeste 9 Nordeste 0 -- -- 92
2020-03-23 00:00:00 8.2 3 Nordeste 6 Norte 0 -- -- 93
2020-03-22 23:00:00 7.9 3 Norte 5 Norte 0 -- -- 94
2020-03-22 22:00:00 7.9 3 Nordeste 4 Nordeste 0.2 -- -- 94
2020-03-22 21:00:00 7.9 0 Calma 12 Sudeste 0.2 -- -- 94
2020-03-22 20:00:00 8.6 6 Sudeste 15 Sudeste 5.4 -- -- 89
2020-03-22 19:00:00 10.4 8 Oeste 12 Oeste 0 -- -- 81
2020-03-22 18:00:00 12.4 6 Oeste 13 Oeste 0 -- -- 73
2020-03-22 17:00:00 11.9 4 Sudoeste 13 Sur 0 -- -- 76
2020-03-22 16:00:00 9.5 5 Sudeste 21 Este 1.2 -- -- 89
2020-03-22 15:00:00 13 6 Este 16 Este 0 -- -- 62
2020-03-22 14:00:00 12.5 7 Nordeste 17 Nordeste 0 -- -- 63
2020-03-22 13:00:00 12.6 8 Nordeste 20 Este 0 -- -- 67
2020-03-22 12:00:00 11.2 8 Este 21 Nordeste 0 -- -- 71
2020-03-22 11:00:00 10 10 Nordeste 18 Este 0 -- -- 77
2020-03-22 10:00:00 9.3 8 Este 17 Este 0 -- -- 80
2020-03-22 09:00:00 7.8 6 Este 13 Nordeste 0 -- -- 93
2020-03-22 08:00:00 5.7 3 Nordeste 10 Nordeste 0.2 -- -- 97
2020-03-22 07:00:00 5.6 4 Este 8 Este 0 -- -- 97
2020-03-22 06:00:00 6 2 Este 9 Sudeste 0 -- -- 96
2020-03-22 05:00:00 6.5 2 Sudeste 8 Sudeste 0 -- -- 96
2020-03-22 04:00:00 6.8 3 Este 10 Sudeste 0 -- -- 96
2020-03-22 03:00:00 6.9 5 Este 13 Este 0 -- -- 96
2020-03-22 02:00:00 7.3 5 Este 18 Este 0 -- -- 96
2020-03-22 01:00:00 7.5 6 Este 19 Este 0 -- -- 95
2020-03-22 00:00:00 7.3 8 Este 16 Nordeste 0 -- -- 95
2020-03-21 23:00:00 7 5 Este 11 Nordeste 0.2 -- -- 95
2020-03-21 22:00:00 7.5 5 Este 19 Sudeste 0.6 -- -- 95
2020-03-21 21:00:00 7.9 2 Nordeste 6 Este 0 -- -- 94
2020-03-21 20:00:00 8 2 Sur 19 Sur 1.8 -- -- 94
2020-03-21 19:00:00 8.6 12 Sur 26 Sur 0.8 -- -- 88
2020-03-21 18:00:00 11.5 6 Este 19 Este 0 -- -- 71
2020-03-21 17:00:00 11.8 9 Este 17 Sudeste 0 -- -- 64
2020-03-21 16:00:00 12.2 5 Sudeste 19 Nordeste 0 -- -- 69
2020-03-21 15:00:00 11.4 6 Este 15 Nordeste 0.2 -- -- 70
2020-03-21 14:00:00 11.1 5 Este 10 Este 0 -- -- 74
2020-03-21 13:00:00 10 4 Sudeste 13 Sudeste 0 -- -- 82
2020-03-21 12:00:00 9.5 5 Sudeste 15 Este 0 -- -- 89
2020-03-21 11:00:00 7.3 6 Sudeste 14 Sudeste 0.4 -- -- 96
2020-03-21 10:00:00 6.6 3 Sudeste 9 Este 0.6 -- -- 96
2020-03-21 09:00:00 6.3 4 Este 12 Sudeste 1 -- -- 96
2020-03-21 08:00:00 6.7 3 Sudeste 26 Sudoeste 1.4 -- -- 97
2020-03-21 07:00:00 7.1 17 Oeste 31 Oeste 2.4 -- -- 97
2020-03-21 06:00:00 7.7 6 Oeste 37 Sudoeste 3.6 -- -- 97
2020-03-21 05:00:00 9.6 13 Sur 36 Sudoeste 3.2 -- -- 94
2020-03-21 04:00:00 10 8 Este 16 Sudeste 2.4 -- -- 96
2020-03-21 03:00:00 10.4 2 Sudeste 14 Sur 2.8 -- -- 94
2020-03-21 02:00:00 11 4 Sur 17 Sur 0.8 -- -- 90
2020-03-21 01:00:00 12 7 Sudeste 20 Sur 0 -- -- 82
2020-03-21 00:00:00 11.6 5 Sudeste 15 Sudeste 0 -- -- 84
2020-03-20 23:00:00 11.2 4 Este 12 Sudeste 0 -- -- 86
2020-03-20 22:00:00 11.6 4 Este 11 Sudeste 0 -- -- 85
2020-03-20 21:00:00 11.9 3 Sudeste 8 Sudeste 0 -- -- 86
2020-03-20 20:00:00 12.8 0 Calma 10 Sudoeste 0 -- -- 83
2020-03-20 19:00:00 14 2 Este 10 Este 0 -- -- 77
2020-03-20 18:00:00 14.7 6 Este 21 Este 0 -- -- 71
2020-03-20 17:00:00 15.2 6 Este 17 Sudeste 0 -- -- 68
2020-03-20 16:00:00 15.3 8 Este 19 Este 0 -- -- 68
2020-03-20 15:00:00 15 8 Este 16 Nordeste 0 -- -- 71
2020-03-20 14:00:00 13.9 5 Este 17 Sudeste 0 -- -- 76
2020-03-20 13:00:00 13.7 7 Este 19 Sudeste 0 -- -- 77
2020-03-20 12:00:00 12.2 8 Este 22 Sudeste 0 -- -- 82
2020-03-20 11:00:00 11.9 8 Este 21 Nordeste 0 -- -- 84
2020-03-20 10:00:00 11 8 Este 19 Este 0 -- -- 87
2020-03-20 09:00:00 10.3 9 Este 20 Este 0 -- -- 92
2020-03-20 08:00:00 9.5 10 Este 20 Nordeste 0 -- -- 93
2020-03-20 07:00:00 9.7 5 Este 18 Este 0.4 -- -- 89
2020-03-20 06:00:00 10.5 5 Este 18 Nordeste 0 -- -- 81
2020-03-20 05:00:00 10.9 7 Este 19 Este 0 -- -- 79
2020-03-20 04:00:00 11.1 8 Este 21 Nordeste 0 -- -- 77
2020-03-20 03:00:00 11.4 10 Este 27 Este 0 -- -- 75
2020-03-20 02:00:00 11.7 9 Este 21 Este 0 -- -- 73
2020-03-20 01:00:00 12 12 Este 27 Este 0 -- -- 72
2020-03-20 00:00:00 12.4 9 Este 24 Nordeste 0 -- -- 71
2020-03-19 23:00:00 13.1 11 Este 24 Nordeste 0 -- -- 69
2020-03-19 22:00:00 13.2 8 Este 15 Este 0 -- -- 69
2020-03-19 21:00:00 13.1 3 Este 9 Nordeste 0 -- -- 72
2020-03-19 20:00:00 14.5 4 Este 12 Sudeste 0 -- -- 65
2020-03-19 19:00:00 16.2 3 Este 13 Este 0 -- -- 60
2020-03-19 18:00:00 17.3 8 Este 19 Este 0 -- -- 52
2020-03-19 17:00:00 18.3 7 Este 23 Este 0 -- -- 50
2020-03-19 16:00:00 18.6 10 Este 28 Este 0 -- -- 49
2020-03-19 15:00:00 18.1 10 Este 27 Nordeste 0 -- -- 46
2020-03-19 14:00:00 17 12 Este 26 Sudeste 0 -- -- 51
2020-03-19 13:00:00 15.6 11 Este 29 Este 0 -- -- 59
2020-03-19 12:00:00 13.8 10 Este 25 Este 0 -- -- 65
2020-03-19 11:00:00 12.3 13 Este 29 Este 0 -- -- 66
2020-03-19 10:00:00 10.9 13 Este 28 Este 0 -- -- 68
2020-03-19 09:00:00 9.4 11 Este 28 Este 0 -- -- 70
2020-03-19 08:00:00 8.4 7 Este 23 Nordeste 0 -- -- 67
2020-03-19 07:00:00 8.9 5 Este 18 Nordeste 0 -- -- 59
2020-03-19 06:00:00 9 5 Nordeste 16 Este 0 -- -- 58
2020-03-19 05:00:00 9.4 5 Nordeste 16 Este 0 -- -- 58
2020-03-19 04:00:00 10.4 8 Este 26 Este 0 -- -- 52
2020-03-19 03:00:00 11.1 12 Este 29 Este 0 -- -- 48
2020-03-19 02:00:00 11.7 15 Este 33 Este 0 -- -- 50
2020-03-19 01:00:00 11.9 10 Este 26 Nordeste 0 -- -- 55
2020-03-19 00:00:00 12.5 12 Este 30 Nordeste 0 -- -- 54
2020-03-18 23:00:00 13 14 Este 30 Nordeste 0 -- -- 53
2020-03-18 22:00:00 13.6 9 Este 31 Nordeste 0 -- -- 52
2020-03-18 21:00:00 14.3 13 Este 33 Sudeste 0 -- -- 50
2020-03-18 20:00:00 14.9 14 Este 31 Este 0 -- -- 59
2020-03-18 19:00:00 15.7 14 Este 37 Nordeste 0 -- -- 62
2020-03-18 18:00:00 15.9 14 Este 37 Nordeste 0 -- -- 60
2020-03-18 17:00:00 16.6 15 Este 35 Este 0 -- -- 58
2020-03-18 16:00:00 18.2 12 Este 33 Norte 0 -- -- 52
2020-03-18 15:00:00 18.9 14 Este 36 Nordeste 0 -- -- 52
2020-03-18 14:00:00 17.3 15 Este 34 Nordeste 0 -- -- 55
2020-03-18 13:00:00 16.2 14 Este 38 Este 0 -- -- 57
2020-03-18 12:00:00 15.8 19 Este 48 Este 0 -- -- 56
2020-03-18 11:00:00 14.2 21 Este 44 Nordeste 0 -- -- 60
2020-03-18 10:00:00 13 13 Este 37 Este 0 -- -- 65
2020-03-18 09:00:00 11.2 16 Este 40 Este 0 -- -- 71
2020-03-18 08:00:00 10.6 17 Este 47 Este 0 -- -- 73
2020-03-18 07:00:00 10.5 14 Este 39 Este 0 -- -- 73
2020-03-18 06:00:00 10.4 14 Este 40 Nordeste 0 -- -- 75
2020-03-18 05:00:00 10.5 19 Este 42 Nordeste 0 -- -- 76
2020-03-18 04:00:00 10.9 13 Este 38 Este 0 -- -- 75
2020-03-18 03:00:00 11.8 16 Este 41 Este 0 -- -- 74
2020-03-18 02:00:00 12.4 15 Este 40 Este 0 -- -- 79
2020-03-18 01:00:00 12.8 17 Nordeste 38 Nordeste 0 -- -- 76
2020-03-18 00:00:00 12.9 13 Este 36 Nordeste 0 -- -- 77
2020-03-17 23:00:00 13.3 13 Este 39 Este 0 -- -- 75
2020-03-17 22:00:00 13.7 9 Este 28 Este 0 -- -- 73
2020-03-17 21:00:00 14.1 11 Este 21 Este 0 -- -- 69
2020-03-17 20:00:00 14.1 8 Nordeste 22 Este 0 -- -- 59
2020-03-17 19:00:00 16.2 8 Este 24 Este 0 -- -- 50
2020-03-17 18:00:00 16.6 11 Este 31 Este 0 -- -- 49
2020-03-17 17:00:00 16.7 10 Este 35 Este 0 -- -- 47
2020-03-17 16:00:00 15.7 14 Este 31 Este 0 -- -- 44
2020-03-17 15:00:00 14.5 15 Este 35 Nordeste 0 -- -- 46
2020-03-17 14:00:00 13.4 12 Este 30 Sudeste 0 -- -- 53
2020-03-17 13:00:00 13.4 11 Este 33 Este 0 -- -- 54
2020-03-17 12:00:00 11.1 10 Este 27 Sudeste 0 -- -- 62
2020-03-17 11:00:00 10.1 11 Este 34 Nordeste 0 -- -- 65
2020-03-17 10:00:00 8.1 19 Este 33 Este 0 -- -- 70
2020-03-17 09:00:00 6 10 Nordeste 24 Este 0 -- -- 74
2020-03-17 08:00:00 4.9 12 Nordeste 24 Este 0 -- -- 75
2020-03-17 07:00:00 4.8 9 Nordeste 31 Nordeste 0 -- -- 78
2020-03-17 06:00:00 4.9 11 Nordeste 27 Nordeste 0 -- -- 77
2020-03-17 05:00:00 5.1 12 Nordeste 25 Nordeste 0 -- -- 80
2020-03-17 04:00:00 5.2 9 Este 26 Este 0 -- -- 79
2020-03-17 03:00:00 4.8 11 Nordeste 26 Nordeste 0 -- -- 81
2020-03-17 02:00:00 4.7 11 Nordeste 24 Nordeste 0 -- -- 82
2020-03-17 01:00:00 4.9 9 Nordeste 21 Nordeste 0 -- -- 85
2020-03-17 00:00:00 4.7 9 Nordeste 20 Nordeste 0 -- -- 87
2020-03-16 23:00:00 4.3 6 Nordeste 18 Nordeste 0 -- -- 87
2020-03-16 22:00:00 4.2 7 Nordeste 16 Nordeste 0 -- -- 88
2020-03-16 21:00:00 4.1 7 Nordeste 17 Nordeste 0.6 -- -- 90
2020-03-16 20:00:00 4.5 3 Este 18 Nordeste 1.8 -- -- 91
2020-03-16 19:00:00 4.8 4 Nordeste 19 Nordeste 0.6 -- -- 89
2020-03-16 18:00:00 7 6 Este 23 Noroeste 0 -- -- 76
2020-03-16 17:00:00 8 17 Norte 30 Norte 0.2 -- -- 65
2020-03-16 16:00:00 7.8 11 Nordeste 25 Norte 0 -- -- 70
2020-03-16 15:00:00 9 12 Norte 24 Norte 0 -- -- 62
2020-03-16 14:00:00 7.5 17 Noroeste 32 Noroeste 0 -- -- 73
2020-03-16 13:00:00 9 14 Noroeste 27 Oeste 0 -- -- 63
2020-03-16 12:00:00 7.9 15 Noroeste 32 Noroeste 0 -- -- 66
2020-03-16 11:00:00 7.2 19 Noroeste 30 Noroeste 0 -- -- 69
2020-03-16 10:00:00 5.6 13 Noroeste 26 Oeste 0 -- -- 74
2020-03-16 09:00:00 4.5 10 Noroeste 46 Noroeste 0 -- -- 74
2020-03-16 08:00:00 3.9 25 Oeste 43 Oeste 0 -- -- 76
2020-03-16 07:00:00 3.6 13 Oeste 36 Oeste 0 -- -- 76
2020-03-16 06:00:00 3.6 18 Oeste 36 Oeste 0 -- -- 74
2020-03-16 05:00:00 3.6 17 Noroeste 35 Oeste 0 -- -- 74
2020-03-16 04:00:00 3.8 13 Oeste 26 Oeste 0 -- -- 74
2020-03-16 03:00:00 4.6 12 Oeste 28 Noroeste 0 -- -- 76
2020-03-16 02:00:00 5.4 16 Oeste 26 Oeste 0 -- -- 76
2020-03-16 01:00:00 6.7 12 Oeste 28 Oeste 0 -- -- 77
2020-03-16 00:00:00 9 12 Oeste 31 Oeste 0 -- -- 75
2020-03-15 23:00:00 10.4 18 Oeste 31 Oeste 0 -- -- 75
2020-03-15 22:00:00 12 14 Oeste 30 Oeste 0 -- -- 65
2020-03-15 21:00:00 13 18 Oeste 31 Oeste 0 -- -- 63
2020-03-15 20:00:00 14.9 16 Oeste 35 Oeste 0 -- -- 73
2020-03-15 19:00:00 16.6 20 Oeste 37 Noroeste 0 -- -- 66
2020-03-15 18:00:00 18.5 20 Oeste 38 Oeste 0 -- -- 60
2020-03-15 17:00:00 19.7 21 Oeste 42 Oeste 0 -- -- 56
2020-03-15 16:00:00 19.5 18 Sudoeste 28 Sudoeste 0 -- -- 58
2020-03-15 15:00:00 19 15 Sudoeste 27 Sudoeste 0 -- -- 61
2020-03-15 14:00:00 18.2 13 Oeste 21 Oeste 0 -- -- 67
2020-03-15 13:00:00 17 11 Sudoeste 19 Oeste 0 -- -- 73
2020-03-15 12:00:00 16.6 9 Oeste 18 Oeste 0 -- -- 74
2020-03-15 11:00:00 15.1 8 Sudoeste 13 Sudoeste 0 -- -- 79
2020-03-15 10:00:00 13.9 6 Sudoeste 12 Sur 0 -- -- 82
2020-03-15 09:00:00 12.6 3 Norte 7 Norte 0 -- -- 88
2020-03-15 08:00:00 10.9 4 Norte 5 Norte 0 -- -- 92
2020-03-15 07:00:00 11.7 3 Este 6 Este 0 -- -- 87
2020-03-15 06:00:00 11.9 0 Calma 5 Este 0 -- -- 87
2020-03-15 05:00:00 11.6 0 Calma 4 Sudoeste 0 -- -- 90
2020-03-15 04:00:00 11.5 2 Nordeste 4 Nordeste 0 -- -- 91
2020-03-15 03:00:00 11.6 0 Calma 5 Norte 0 -- -- 88
2020-03-15 02:00:00 12.4 0 Calma 8 Sur 0 -- -- 83
2020-03-15 01:00:00 13.9 5 Este 12 Sudoeste 0 -- -- 76
2020-03-15 00:00:00 14.4 6 Nordeste 9 Nordeste 0 -- -- 77
2020-03-14 23:00:00 14.8 5 Norte 10 Norte 0 -- -- 78
2020-03-14 22:00:00 14.8 5 Nordeste 8 Nordeste 0 -- -- 78
2020-03-14 21:00:00 15.2 5 Noroeste 7 Noroeste 0 -- -- 77
2020-03-14 20:00:00 16.6 5 Noroeste 11 Oeste 0 -- -- 73
2020-03-14 19:00:00 19.1 8 Oeste 13 Oeste 0 -- -- 65
2020-03-14 18:00:00 19.8 8 Oeste 16 Oeste 0 -- -- 61
2020-03-14 17:00:00 19.9 7 Oeste 19 Oeste 0 -- -- 63
2020-03-14 16:00:00 19.6 10 Oeste 19 Oeste 0 -- -- 64
2020-03-14 15:00:00 19.3 8 Oeste 18 Oeste 0 -- -- 72
2020-03-14 14:00:00 18.4 9 Oeste 15 Sudoeste 0 -- -- 77
2020-03-14 13:00:00 16.6 8 Noroeste 14 Sudoeste 0 -- -- 84
2020-03-14 12:00:00 15.9 5 Sur 11 Sudeste 0 -- -- 86
2020-03-14 11:00:00 13.4 2 Nordeste 9 Sudeste 0 -- -- 100
2020-03-14 10:00:00 11.6 3 Este 11 Sudeste 0 -- -- 99
2020-03-14 09:00:00 10.3 4 Este 13 Este 0 -- -- 100
2020-03-14 08:00:00 9.9 4 Norte 11 Sudeste 0 -- -- 99
2020-03-14 07:00:00 10.2 3 Este 10 Nordeste 0 -- -- 99
2020-03-14 06:00:00 10.5 3 Este 9 Nordeste 0 -- -- 99
2020-03-14 05:00:00 10.8 4 Sur 9 Sudeste 0 -- -- 99
2020-03-14 04:00:00 10.8 3 Sudeste 7 Sur 0 -- -- 98
2020-03-14 03:00:00 10.9 0 Calma 6 Sur 0 -- -- 98
2020-03-14 02:00:00 10.7 4 Sudeste 8 Sudoeste 0 -- -- 98
2020-03-14 01:00:00 11 3 Sudoeste 6 Sudoeste 0 -- -- 97
2020-03-14 00:00:00 11.2 4 Noroeste 8 Sudoeste 0 -- -- 96
2020-03-13 23:00:00 11.9 3 Sudoeste 8 Oeste 0 -- -- 94
2020-03-13 22:00:00 12.7 4 Sudoeste 14 Oeste 0 -- -- 91
2020-03-13 21:00:00 13.8 10 Oeste 18 Oeste 0 -- -- 88
2020-03-13 20:00:00 14.9 11 Oeste 18 Oeste 0 -- -- 83
2020-03-13 19:00:00 17 12 Oeste 20 Sudoeste 0 -- -- 77
2020-03-13 18:00:00 18.4 14 Sudoeste 23 Oeste 0 -- -- 69
2020-03-13 17:00:00 18.7 13 Oeste 24 Sudoeste 0 -- -- 65
2020-03-13 16:00:00 18.3 14 Oeste 22 Sudoeste 0 -- -- 70
2020-03-13 15:00:00 17.7 12 Oeste 22 Oeste 0 -- -- 72
2020-03-13 14:00:00 17.1 14 Oeste 21 Oeste 0 -- -- 78
2020-03-13 13:00:00 16.5 13 Oeste 19 Oeste 0 -- -- 79
2020-03-13 12:00:00 16 12 Sudoeste 19 Sudoeste 0 -- -- 82
2020-03-13 11:00:00 15.1 10 Sudoeste 15 Sudoeste 0 -- -- 81
2020-03-13 10:00:00 13.8 7 Sudoeste 11 Sudoeste 0 -- -- 89
2020-03-13 09:00:00 10.8 0 Calma 4 Sudoeste 0 -- -- 98
2020-03-13 08:00:00 9.3 0 Calma 4 Norte 0 -- -- 96
2020-03-13 07:00:00 9.8 0 Calma 6 Sur 0 -- -- 94
2020-03-13 06:00:00 9.9 2 Sudoeste 5 Sudoeste 0 -- -- 94
2020-03-13 05:00:00 10.5 2 Sur 4 Sur 0 -- -- 92
2020-03-13 04:00:00 11.1 0 Calma 6 Sudoeste 0 -- -- 87
2020-03-13 03:00:00 12.3 4 Sudoeste 6 Sudoeste 0 -- -- 83
2020-03-13 02:00:00 12.6 3 Sudoeste 5 Sudoeste 0 -- -- 78
2020-03-13 01:00:00 13.4 4 Sudoeste 8 Oeste 0 -- -- 74
2020-03-13 00:00:00 14.8 6 Oeste 10 Oeste 0 -- -- 68
2020-03-12 23:00:00 16.1 7 Oeste 13 Oeste 0 -- -- 65
2020-03-12 22:00:00 17.8 4 Sudoeste 12 Noroeste 0 -- -- 60
2020-03-12 21:00:00 17.4 6 Noroeste 12 Noroeste 0 -- -- 57
2020-03-12 20:00:00 18.6 4 Norte 6 Norte 0 -- -- 59
2020-03-12 19:00:00 20.8 4 Norte 7 Norte 0 -- -- 49
2020-03-12 18:00:00 22.8 6 Noroeste 14 Oeste 0 -- -- 42
2020-03-12 17:00:00 24.3 7 Sudoeste 17 Sudoeste 0 -- -- 36
2020-03-12 16:00:00 23.7 4 Sur 19 Sur 0 -- -- 39
2020-03-12 15:00:00 23.5 9 Sudoeste 22 Sur 0 -- -- 36
2020-03-12 14:00:00 24.8 6 Sudeste 14 Sur 0 -- -- 40
2020-03-12 13:00:00 23.3 4 Sudeste 12 Sur 0 -- -- 40
2020-03-12 12:00:00 22.7 6 Sur 15 Sur 0 -- -- 45
2020-03-12 11:00:00 21.5 4 Sudeste 13 Este 0 -- -- 50
2020-03-12 10:00:00 19.4 4 Este 10 Nordeste 0 -- -- 55
2020-03-12 09:00:00 15.9 4 Este 11 Este 0 -- -- 64
2020-03-12 08:00:00 15.8 8 Este 14 Este 0 -- -- 59
2020-03-12 07:00:00 16.6 10 Este 16 Este 0 -- -- 55
2020-03-12 06:00:00 16.3 11 Este 16 Este 0 -- -- 57
2020-03-12 05:00:00 16.8 10 Este 15 Nordeste 0 -- -- 54
2020-03-12 04:00:00 17.1 8 Este 18 Nordeste 0 -- -- 54
2020-03-12 03:00:00 17.5 7 Este 17 Este 0 -- -- 51
2020-03-12 02:00:00 17.7 7 Este 14 Nordeste 0 -- -- 51
2020-03-12 01:00:00 17.4 5 Este 14 Nordeste 0 -- -- 54
2020-03-12 00:00:00 18.1 9 Este 14 Este 0 -- -- 52
2020-03-11 23:00:00 18 3 Este 8 Este 0 -- -- 51
2020-03-11 22:00:00 18.5 4 Este 9 Este 0 -- -- 48
2020-03-11 21:00:00 19.5 4 Este 15 Nordeste 0 -- -- 49
2020-03-11 20:00:00 20.2 9 Este 13 Nordeste 0 -- -- 46
2020-03-11 19:00:00 20.9 6 Este 9 Este 0 -- -- 48
2020-03-11 18:00:00 22.6 3 Nordeste 7 Norte 0 -- -- 52
2020-03-11 17:00:00 23.8 5 Norte 11 Noroeste 0 -- -- 40
2020-03-11 16:00:00 24.3 5 Noroeste 11 Noroeste 0 -- -- 44
2020-03-11 15:00:00 23.2 5 Noroeste 9 Noroeste 0 -- -- 47
2020-03-11 14:00:00 24.3 4 Sur 9 Sur 0 -- -- 38
2020-03-11 13:00:00 23 3 Sudeste 12 Este 0 -- -- 45
2020-03-11 12:00:00 21.7 4 Sudeste 11 Nordeste 0 -- -- 48
2020-03-11 11:00:00 20.2 4 Este 11 Este 0 -- -- 54
2020-03-11 10:00:00 17.7 6 Este 15 Este 0 -- -- 61
2020-03-11 09:00:00 14.5 7 Este 16 Este 0 -- -- 65
2020-03-11 08:00:00 13.3 11 Este 18 Nordeste 0 -- -- 67
2020-03-11 07:00:00 13.2 11 Este 17 Este 0 -- -- 68
2020-03-11 06:00:00 13.2 9 Este 14 Este 0 -- -- 68
2020-03-11 05:00:00 13.8 7 Este 13 Nordeste 0 -- -- 66
2020-03-11 04:00:00 14.2 9 Este 13 Nordeste 0 -- -- 64
2020-03-11 03:00:00 13.9 6 Nordeste 9 Nordeste 0 -- -- 64
2020-03-11 02:00:00 15.4 7 Norte 10 Nordeste 0 -- -- 57
2020-03-11 01:00:00 15.6 5 Norte 12 Noroeste 0 -- -- 58
2020-03-11 00:00:00 16.5 7 Noroeste 12 Noroeste 0 -- -- 56
2020-03-10 23:00:00 15.4 7 Noroeste 12 Noroeste 0 -- -- 62
2020-03-10 22:00:00 15.2 5 Norte 8 Noroeste 0 -- -- 65
2020-03-10 21:00:00 15.2 4 Oeste 6 Sudoeste 0 -- -- 65
2020-03-10 20:00:00 17 3 Oeste 6 Oeste 0 -- -- 57
2020-03-10 19:00:00 20.3 5 Oeste 12 Oeste 0 -- -- 48
2020-03-10 18:00:00 20.9 8 Oeste 14 Sudoeste 0 -- -- 45
2020-03-10 17:00:00 21.1 8 Oeste 16 Oeste 0 -- -- 45
2020-03-10 16:00:00 20.7 9 Oeste 18 Oeste 0 -- -- 46
2020-03-10 15:00:00 19.9 10 Oeste 18 Oeste 0 -- -- 43
2020-03-10 14:00:00 19.8 11 Sudoeste 17 Oeste 0 -- -- 47
2020-03-10 13:00:00 18.9 6 Sudoeste 11 Oeste 0 -- -- 46
2020-03-10 12:00:00 17.3 5 Oeste 13 Noroeste 0 -- -- 53
2020-03-10 11:00:00 17.1 3 Sudeste 11 Sudeste 0 -- -- 44
2020-03-10 10:00:00 14.8 5 Este 10 Este 0 -- -- 50
2020-03-10 09:00:00 11 4 Este 13 Nordeste 0 -- -- 61
2020-03-10 08:00:00 9.3 4 Este 9 Nordeste 0 -- -- 65
2020-03-10 07:00:00 9.4 4 Este 8 Nordeste 0 -- -- 65
2020-03-10 06:00:00 10.2 4 Este 11 Este 0 -- -- 64
2020-03-10 05:00:00 9.9 4 Nordeste 9 Este 0 -- -- 68
2020-03-10 04:00:00 10.5 4 Nordeste 10 Nordeste 0 -- -- 69
2020-03-10 03:00:00 11 5 Este 13 Este 0 -- -- 69
2020-03-10 02:00:00 10.6 6 Este 11 Este 0 -- -- 71
2020-03-10 01:00:00 9.3 0 Calma 8 Este 0 -- -- 72
2020-03-10 00:00:00 10.6 3 Este 7 Nordeste 0 -- -- 57
2020-03-09 23:00:00 11 3 Nordeste 5 Norte 0 -- -- 64
2020-03-09 22:00:00 12 4 Norte 8 Noroeste 0 -- -- 56
2020-03-09 21:00:00 11.7 4 Oeste 7 Oeste 0 -- -- 64
2020-03-09 20:00:00 14 3 Noroeste 10 Sudoeste 0 -- -- 55
2020-03-09 19:00:00 16.1 9 Sudoeste 15 Sudoeste 0 -- -- 55
2020-03-09 18:00:00 17.6 9 Sudoeste 19 Sudoeste 0 -- -- 50
2020-03-09 17:00:00 17.3 8 Oeste 15 Oeste 0 -- -- 52
2020-03-09 16:00:00 17 6 Noroeste 15 Noroeste 0 -- -- 52
2020-03-09 15:00:00 16.2 8 Noroeste 15 Sudoeste 0 -- -- 55
2020-03-09 14:00:00 15.6 4 Noroeste 13 Sur 0 -- -- 58
2020-03-09 13:00:00 13.5 3 Noroeste 13 Sudoeste 0 -- -- 62
2020-03-09 12:00:00 11.8 6 Sudoeste 11 Sudoeste 0 -- -- 71
2020-03-09 11:00:00 10.1 3 Sudoeste 10 Sudoeste 0 -- -- 77
2020-03-09 10:00:00 8.4 5 Sur 13 Oeste 0 -- -- 85
2020-03-09 09:00:00 7.7 8 Noroeste 14 Oeste 0 -- -- 79
2020-03-09 08:00:00 7 6 Sudoeste 15 Noroeste 0 -- -- 80
2020-03-09 07:00:00 9 8 Noroeste 22 Norte 0 -- -- 68
2020-03-09 06:00:00 9.7 11 Oeste 30 Noroeste 0 -- -- 67
2020-03-09 05:00:00 9.3 14 Oeste 36 Sudoeste 0 -- -- 77
2020-03-09 04:00:00 9.9 11 Oeste 22 Oeste 0 -- -- 79
2020-03-09 03:00:00 10 8 Oeste 18 Oeste 0 -- -- 81
2020-03-09 02:00:00 10.4 10 Sudoeste 23 Oeste 0 -- -- 82
2020-03-09 01:00:00 10.8 10 Oeste 21 Oeste 0 -- -- 80
2020-03-09 00:00:00 10.9 12 Oeste 20 Oeste 0 -- -- 79
2020-03-08 23:00:00 11 9 Oeste 22 Oeste 0 -- -- 75
2020-03-08 22:00:00 11.5 15 Oeste 28 Oeste 0 -- -- 68
2020-03-08 21:00:00 12.1 9 Noroeste 17 Oeste 0 -- -- 64
2020-03-08 20:00:00 12.2 14 Oeste 21 Oeste 0 -- -- 71
2020-03-08 19:00:00 14 8 Norte 19 Noroeste 0 -- -- 59
2020-03-08 18:00:00 14.8 6 Oeste 23 Sudoeste 0 -- -- 59
2020-03-08 17:00:00 15.2 13 Oeste 24 Oeste 0 -- -- 63
2020-03-08 16:00:00 14.6 15 Oeste 25 Oeste 0 -- -- 64
2020-03-08 15:00:00 14.6 16 Oeste 25 Oeste 0 -- -- 62
2020-03-08 14:00:00 14.5 15 Oeste 25 Sudoeste 0 -- -- 61
2020-03-08 13:00:00 13.4 15 Oeste 25 Sudoeste 0 -- -- 68
2020-03-08 12:00:00 12.5 10 Sudoeste 15 Oeste 0 -- -- 68
2020-03-08 11:00:00 11.6 4 Sudoeste 9 Sudoeste 0 -- -- 68
2020-03-08 10:00:00 9.6 4 Oeste 9 Noroeste 0 -- -- 77
2020-03-08 09:00:00 5.7 3 Sudeste 6 Sudeste 0 -- -- 89
2020-03-08 08:00:00 4.7 3 Sudeste 7 Sudeste 0 -- -- 88
2020-03-08 07:00:00 5.2 5 Noroeste 7 Noroeste 0 -- -- 88
2020-03-08 06:00:00 4.1 4 Noroeste 7 Noroeste 0 -- -- 88
2020-03-08 05:00:00 5.4 0 Calma 4 Sudeste 0 -- -- 85
2020-03-08 04:00:00 5.9 0 Calma 8 Noroeste 0 -- -- 81
2020-03-08 03:00:00 6.3 2 Norte 6 Este 0 -- -- 80
2020-03-08 02:00:00 7.2 3 Este 9 Este 0 -- -- 76
2020-03-08 01:00:00 8.1 4 Sudeste 9 Sur 0 -- -- 72
2020-03-08 00:00:00 8.1 4 Norte 10 Norte 0 -- -- 72
2020-03-07 23:00:00 7.3 4 Noroeste 7 Noroeste 0 -- -- 77
2020-03-07 22:00:00 8.1 5 Norte 7 Noroeste 0 -- -- 74
2020-03-07 21:00:00 9.7 5 Norte 8 Norte 0 -- -- 69
2020-03-07 20:00:00 11.9 5 Noroeste 13 Oeste 0 -- -- 57
2020-03-07 19:00:00 14 10 Sudoeste 17 Sudoeste 0 -- -- 54
2020-03-07 18:00:00 14.9 10 Oeste 18 Oeste 0 -- -- 48
2020-03-07 17:00:00 14.9 11 Sudoeste 19 Sudoeste 0 -- -- 52
2020-03-07 16:00:00 14.8 5 Sudoeste 22 Oeste 0 -- -- 51
2020-03-07 15:00:00 14.4 11 Sudoeste 19 Oeste 0 -- -- 55
2020-03-07 14:00:00 13.5 9 Oeste 17 Oeste 0 -- -- 52
2020-03-07 13:00:00 11.6 10 Oeste 16 Oeste 0 -- -- 62
2020-03-07 12:00:00 10.8 6 Oeste 13 Sudoeste 0 -- -- 65
2020-03-07 11:00:00 9.6 4 Oeste 9 Noroeste 0 -- -- 66
2020-03-07 10:00:00 7.8 3 Sur 7 Sur 0 -- -- 72
2020-03-07 09:00:00 6.4 2 Este 13 Este 0 -- -- 65
2020-03-07 08:00:00 4.6 6 Este 10 Este 0 -- -- 73
2020-03-07 07:00:00 4.2 4 Este 9 Este 0 -- -- 75
2020-03-07 06:00:00 4.1 4 Nordeste 6 Noroeste 0 -- -- 75
2020-03-07 05:00:00 5.2 3 Norte 12 Noroeste 0 -- -- 70
2020-03-07 04:00:00 4.7 3 Norte 8 Noroeste 0 -- -- 70
2020-03-07 03:00:00 5.1 3 Este 8 Este 0 -- -- 70
2020-03-07 02:00:00 6.5 5 Nordeste 23 Norte 0 -- -- 64
2020-03-07 01:00:00 7.2 13 Norte 19 Norte 0 -- -- 62
2020-03-07 00:00:00 7.5 10 Noroeste 15 Oeste 0 -- -- 60
2020-03-06 23:00:00 8.1 10 Norte 26 Norte 0 -- -- 57
2020-03-06 22:00:00 9.1 13 Norte 25 Norte 0 -- -- 52
2020-03-06 21:00:00 9.7 13 Noroeste 28 Norte 0 -- -- 53
2020-03-06 20:00:00 10.1 10 Noroeste 31 Noroeste 0 -- -- 54
2020-03-06 19:00:00 11.5 14 Noroeste 33 Norte 0 -- -- 49
2020-03-06 18:00:00 12.5 20 Noroeste 33 Noroeste 0 -- -- 49
2020-03-06 17:00:00 12.9 16 Noroeste 48 Noroeste 0 -- -- 47
2020-03-06 16:00:00 12.8 24 Noroeste 39 Norte 0 -- -- 50
2020-03-06 15:00:00 12.3 24 Noroeste 44 Noroeste 0 -- -- 52
2020-03-06 14:00:00 12.2 21 Noroeste 42 Noroeste 0 -- -- 54
2020-03-06 13:00:00 11.3 17 Noroeste 44 Norte 0 -- -- 59
2020-03-06 12:00:00 10.2 16 Noroeste 32 Oeste 0 -- -- 61
2020-03-06 11:00:00 9.7 17 Noroeste 27 Oeste 0 -- -- 66
2020-03-06 10:00:00 9.1 13 Noroeste 28 Oeste 0 -- -- 75
2020-03-06 09:00:00 7.6 15 Oeste 29 Oeste 0 -- -- 97
2020-03-06 08:00:00 6.3 19 Oeste 27 Oeste 0.2 -- -- 99
2020-03-06 07:00:00 5.5 15 Oeste 22 Sudoeste 0 -- -- 98
2020-03-06 06:00:00 5.3 13 Sudoeste 25 Sudoeste 0 -- -- 96
2020-03-06 05:00:00 5.2 12 Sudoeste 22 Oeste 0 -- -- 94
2020-03-06 04:00:00 4.8 3 Sur 11 Oeste 0 -- -- 92
2020-03-06 03:00:00 6.3 9 Oeste 30 Noroeste 0 -- -- 85
2020-03-06 02:00:00 6.9 16 Oeste 28 Noroeste 0 -- -- 84
2020-03-06 01:00:00 7.3 13 Noroeste 27 Noroeste 0 -- -- 78
2020-03-06 00:00:00 8.1 14 Noroeste 25 Noroeste 0 -- -- 73
2020-03-05 23:00:00 8.6 10 Oeste 24 Oeste 0 -- -- 74
2020-03-05 22:00:00 8.9 11 Oeste 27 Oeste 0 -- -- 78
2020-03-05 21:00:00 10 17 Oeste 32 Oeste 0 -- -- 75
2020-03-05 20:00:00 11.3 21 Oeste 41 Oeste 0 -- -- 72
2020-03-05 19:00:00 12.4 21 Oeste 38 Oeste 0 -- -- 68
2020-03-05 18:00:00 13.7 23 Oeste 35 Oeste 0 -- -- 63
2020-03-05 17:00:00 13.7 21 Oeste 40 Oeste 0 -- -- 61
2020-03-05 16:00:00 13.9 24 Oeste 42 Oeste 0 -- -- 63
2020-03-05 15:00:00 12.8 27 Oeste 44 Oeste 0 -- -- 66
2020-03-05 14:00:00 12.5 19 Oeste 41 Oeste 0.2 -- -- 71
2020-03-05 13:00:00 12.1 18 Oeste 31 Oeste 0 -- -- 76
2020-03-05 12:00:00 10.2 12 Oeste 43 Sudoeste 0.6 -- -- 100
2020-03-05 11:00:00 10.2 23 Oeste 39 Sudoeste 1.2 -- -- 100
2020-03-05 10:00:00 10 22 Oeste 44 Sudoeste 0.4 -- -- 100
2020-03-05 09:00:00 10 22 Sudoeste 39 Sudoeste 0 -- -- 100
2020-03-05 08:00:00 10.1 23 Oeste 35 Oeste 0 -- -- 100
2020-03-05 07:00:00 10.3 18 Oeste 31 Sudoeste 0 -- -- 99
2020-03-05 06:00:00 10.6 16 Oeste 23 Oeste 0 -- -- 99
2020-03-05 05:00:00 10.5 14 Oeste 21 Oeste 0 -- -- 98
2020-03-05 04:00:00 10.7 14 Oeste 21 Oeste 0 -- -- 96
2020-03-05 03:00:00 10.5 12 Sudoeste 18 Oeste 0 -- -- 96
2020-03-05 02:00:00 10.8 8 Sudoeste 15 Sudoeste 0 -- -- 93
2020-03-05 01:00:00 10.6 10 Sudoeste 14 Sudoeste 0 -- -- 92
2020-03-05 00:00:00 10.4 0 Calma 6 Sudoeste 0 -- -- 91